Time;durP1;ratioP1;P1;durP2;ratioP2;P2;SDS_P1;SDS_P2;PMS_P1;PMS_P2;Temp;Humidity;BMP_temperature;BMP_pressure;BME280_temperature;BME280_humidity;BME280_pressure;Samples;Min_cycle;Max_cycle;Signal;HPM_P1;HPM_P2
2021/03/13 00:01:50;;;;;;;12.73;7.22;;;23.50;41.80;;;;;;5070067;28;46028;-59
2021/03/13 00:04:15;;;;;;;14.18;6.88;;;23.40;41.80;;;;;;5070646;28;45351;-58
2021/03/13 00:06:41;;;;;;;13.32;7.65;;;23.40;41.80;;;;;;5070594;28;45422;-58
2021/03/13 00:09:07;;;;;;;11.25;6.85;;;23.50;41.80;;;;;;5069762;28;45633;-58
2021/03/13 00:11:32;;;;;;;11.20;7.50;;;23.40;41.70;;;;;;5086866;27;46110;-58
2021/03/13 00:13:58;;;;;;;9.75;6.78;;;23.40;41.80;;;;;;5086915;28;45308;-58
2021/03/13 00:16:23;;;;;;;10.15;6.60;;;23.40;41.70;;;;;;5087231;28;45352;-58
2021/03/13 00:18:49;;;;;;;9.75;6.55;;;23.40;42.30;;;;;;5087337;28;45270;-58
2021/03/13 00:21:15;;;;;;;10.70;7.22;;;23.40;41.70;;;;;;5086798;28;45962;-60
2021/03/13 00:23:40;;;;;;;13.30;7.18;;;23.40;41.70;;;;;;5087318;28;45219;-58
2021/03/13 00:26:06;;;;;;;10.27;6.43;;;23.40;41.70;;;;;;5087401;28;45216;-58
2021/03/13 00:28:31;;;;;;;11.93;7.10;;;23.40;41.70;;;;;;5087655;28;45327;-59
2021/03/13 00:30:57;;;;;;;9.95;6.70;;;23.40;41.70;;;;;;5086769;28;47102;-58
2021/03/13 00:33:25;;;;;;;10.10;6.13;;;23.40;41.70;;;;;;5087081;28;45424;-59
2021/03/13 00:35:52;;;;;;;10.73;6.57;;;23.40;41.70;;;;;;5087224;28;45564;-57
2021/03/13 00:38:18;;;;;;;9.50;6.57;;;23.40;41.60;;;;;;5087558;28;45361;-58
2021/03/13 00:40:45;;;;;;;9.80;6.50;;;23.40;41.60;;;;;;5086100;28;45323;-58
2021/03/13 00:43:12;;;;;;;10.63;7.05;;;23.40;41.60;;;;;;5086892;28;45306;-58
2021/03/13 00:45:38;;;;;;;9.40;5.95;;;23.40;41.60;;;;;;5069103;28;45462;-58
2021/03/13 00:48:04;;;;;;;10.15;5.88;;;23.40;41.60;;;;;;5070213;28;45315;-58
2021/03/13 00:50:30;;;;;;;11.27;6.18;;;23.40;41.50;;;;;;5069401;28;45292;-59
2021/03/13 00:52:56;;;;;;;9.45;6.07;;;23.40;41.50;;;;;;5086845;28;45377;-58
2021/03/13 00:55:22;;;;;;;8.65;5.70;;;23.40;41.60;;;;;;5066252;28;45264;-58
2021/03/13 00:57:48;;;;;;;9.38;5.90;;;23.40;41.60;;;;;;5066877;28;45331;-58
2021/03/13 01:00:17;;;;;;;9.25;5.53;;;23.40;41.50;;;;;;5066216;28;47037;-58
2021/03/13 01:02:42;;;;;;;9.02;5.25;;;23.40;41.50;;;;;;5065985;28;45256;-58
2021/03/13 01:05:09;;;;;;;9.23;5.90;;;23.30;41.50;;;;;;5066202;28;45259;-58
2021/03/13 01:07:35;;;;;;;9.20;6.07;;;23.30;41.50;;;;;;5066772;28;45461;-58
2021/03/13 01:10:05;;;;;;;9.00;5.85;;;23.30;41.40;;;;;;5065841;28;45387;-58
2021/03/13 01:12:30;;;;;;;8.70;5.60;;;23.40;41.50;;;;;;5066063;28;45313;-58
2021/03/13 01:14:56;;;;;;;9.57;5.78;;;23.30;41.40;;;;;;5066299;28;45411;-58
2021/03/13 01:17:21;;;;;;;9.73;6.45;;;23.30;41.40;;;;;;5066933;28;45298;-59
2021/03/13 01:19:47;;;;;;;8.35;5.53;;;23.30;41.50;;;;;;5065902;28;45425;-58
2021/03/13 01:22:13;;;;;;;9.65;5.85;;;23.30;41.40;;;;;;5066364;28;45324;-59
2021/03/13 01:24:40;;;;;;;8.73;5.40;;;23.30;41.40;;;;;;5069683;28;45361;-59
2021/03/13 01:27:08;;;;;;;8.43;5.15;;;23.30;41.40;;;;;;5070055;28;45359;-58
2021/03/13 01:29:34;;;;;;;7.93;5.30;;;23.30;41.40;;;;;;5069563;28;47209;-58
2021/03/13 01:32:03;;;;;;;9.00;6.00;;;23.30;41.40;;;;;;5069564;28;45344;-57
2021/03/13 01:34:32;;;;;;;8.35;4.90;;;23.30;41.40;;;;;;5069809;28;45327;-57
2021/03/13 01:36:58;;;;;;;9.30;5.22;;;23.30;41.30;;;;;;5069920;28;45431;-59
2021/03/13 01:39:24;;;;;;;6.88;4.72;;;23.30;41.90;;;;;;5076909;28;47253;-58
2021/03/13 01:41:49;;;;;;;9.18;5.38;;;23.30;41.30;;;;;;5089355;28;45405;-57
2021/03/13 01:44:15;;;;;;;8.23;4.93;;;23.30;41.30;;;;;;5059727;28;45406;-58
2021/03/13 01:46:41;;;;;;;10.43;5.40;;;23.20;41.30;;;;;;5065807;28;45541;-57
2021/03/13 01:49:06;;;;;;;8.55;4.93;;;23.30;41.30;;;;;;5068850;28;45567;-58
2021/03/13 01:51:32;;;;;;;7.50;4.55;;;23.20;41.30;;;;;;5069087;28;45421;-57
2021/03/13 01:53:57;;;;;;;8.77;5.18;;;23.20;41.30;;;;;;5077123;28;45354;-57
2021/03/13 01:56:23;;;;;;;7.53;4.57;;;23.20;41.30;;;;;;5089685;28;45355;-57
2021/03/13 01:58:49;;;;;;;9.00;4.75;;;23.20;41.30;;;;;;5088840;28;45362;-57
2021/03/13 02:01:14;;;;;;;7.10;4.63;;;23.20;41.30;;;;;;5088945;28;45300;-58
2021/03/13 02:03:41;;;;;;;7.10;4.90;;;23.20;41.20;;;;;;5069591;28;45318;-58
2021/03/13 02:06:07;;;;;;;7.50;4.60;;;23.20;41.20;;;;;;5069492;28;45591;-57
2021/03/13 02:08:38;;;;;;;9.45;5.70;;;23.20;41.20;;;;;;5085711;28;45263;-57
2021/03/13 02:11:21;;;;;;;9.57;5.63;;;23.20;41.20;;;;;;5081838;28;45417;-57
2021/03/13 02:14:01;;;;;;;7.80;5.10;;;23.20;41.20;;;;;;5089652;28;45385;-58
2021/03/13 02:16:42;;;;;;;7.68;4.68;;;23.20;41.20;;;;;;5089528;28;45503;-58
2021/03/13 02:19:19;;;;;;;7.07;4.47;;;23.20;41.20;;;;;;5090406;27;46107;-58
2021/03/13 02:21:52;;;;;;;7.18;4.53;;;23.20;41.20;;;;;;5089121;28;45371;-57
2021/03/13 02:24:26;;;;;;;8.35;4.85;;;23.20;41.20;;;;;;5088713;28;45364;-57
2021/03/13 02:27:11;;;;;;;;;;;23.20;41.20;;;;;;5086144;28;45538;-57
2021/03/13 02:30:01;;;;;;;9.02;5.45;;;23.10;41.10;;;;;;5070196;28;46170;-57
2021/03/13 02:33:07;;;;;;;7.10;3.72;;;23.20;41.20;;;;;;5069551;28;45337;-58
2021/03/13 02:35:37;;;;;;;7.45;4.78;;;23.20;41.10;;;;;;5069713;28;45362;-58
2021/03/13 02:38:17;;;;;;;6.70;4.05;;;23.10;41.00;;;;;;5069097;28;45433;-57
2021/03/13 02:40:43;;;;;;;6.78;4.55;;;23.10;41.10;;;;;;5068267;28;46232;-59
2021/03/13 02:43:10;;;;;;;6.28;4.18;;;23.10;41.00;;;;;;5072046;28;45515;-58
2021/03/13 02:45:38;;;;;;;6.72;3.58;;;23.10;41.00;;;;;;5071223;28;45314;-59
2021/03/13 02:48:08;;;;;;;6.13;4.10;;;23.10;41.00;;;;;;5088858;28;45486;-57
2021/03/13 02:50:35;;;;;;;6.88;4.30;;;23.10;41.10;;;;;;5056607;28;45455;-58
2021/03/13 02:53:01;;;;;;;6.80;3.92;;;23.10;41.10;;;;;;5068218;28;45291;-57
2021/03/13 02:55:26;;;;;;;7.10;3.80;;;23.10;41.10;;;;;;5088707;28;45359;-57
2021/03/13 02:57:54;;;;;;;7.40;4.20;;;23.10;41.00;;;;;;5082609;28;45468;-57
2021/03/13 03:00:21;;;;;;;6.25;3.60;;;23.10;41.00;;;;;;5068013;28;47188;-57
2021/03/13 03:02:50;;;;;;;6.45;3.83;;;23.10;41.10;;;;;;5067653;28;45378;-57
2021/03/13 03:05:16;;;;;;;5.95;4.03;;;23.10;41.00;;;;;;5069370;28;45259;-57
2021/03/13 03:07:42;;;;;;;6.50;3.97;;;23.10;41.00;;;;;;5068341;28;45756;-57
2021/03/13 03:10:08;;;;;;;6.10;3.92;;;23.10;41.00;;;;;;5067972;28;46115;-57
2021/03/13 03:12:34;;;;;;;6.47;3.97;;;23.10;41.00;;;;;;5067767;28;45397;-57
2021/03/13 03:14:59;;;;;;;6.43;4.15;;;23.10;40.90;;;;;;5067985;28;45303;-57
2021/03/13 03:17:26;;;;;;;7.22;4.20;;;23.20;40.90;;;;;;5068523;28;45542;-58
2021/03/13 03:19:54;;;;;;;6.88;3.55;;;23.20;40.90;;;;;;5067803;28;45338;-58
2021/03/13 03:22:19;;;;;;;6.30;3.78;;;23.20;40.90;;;;;;5069106;28;45367;-58
2021/03/13 03:24:45;;;;;;;5.90;3.55;;;23.10;40.80;;;;;;5067970;28;45446;-58
2021/03/13 03:27:11;;;;;;;6.72;3.60;;;23.20;40.80;;;;;;5068345;28;45292;-58
2021/03/13 03:29:36;;;;;;;5.32;3.10;;;23.20;40.80;;;;;;5067495;28;46108;-57
2021/03/13 03:32:02;;;;;;;5.70;3.63;;;23.20;40.80;;;;;;5067693;28;45410;-57
2021/03/13 03:34:28;;;;;;;5.50;3.33;;;23.30;40.80;;;;;;5067768;28;45362;-58
2021/03/13 03:36:53;;;;;;;6.97;4.10;;;23.30;40.80;;;;;;5067821;28;45635;-58
2021/03/13 03:39:19;;;;;;;6.03;3.28;;;23.30;40.80;;;;;;5067688;28;45902;-57
2021/03/13 03:41:46;;;;;;;5.95;3.35;;;23.30;40.80;;;;;;5067469;28;45421;-58
2021/03/13 03:44:16;;;;;;;5.50;3.28;;;23.30;40.70;;;;;;5079784;28;45267;-57
2021/03/13 03:46:42;;;;;;;5.68;3.40;;;23.40;40.70;;;;;;5070140;28;45629;-58
2021/03/13 03:49:07;;;;;;;5.63;3.20;;;23.40;40.70;;;;;;5086950;28;45898;-59
2021/03/13 03:51:33;;;;;;;6.07;3.20;;;23.40;40.70;;;;;;5087551;28;45347;-58
2021/03/13 03:53:59;;;;;;;5.50;3.13;;;23.40;40.60;;;;;;5079120;28;45393;-57
2021/03/13 03:56:25;;;;;;;4.80;3.17;;;23.40;40.60;;;;;;5067760;28;45350;-58
2021/03/13 03:58:52;;;;;;;4.53;2.72;;;23.40;40.60;;;;;;5066923;28;47084;-57
2021/03/13 04:01:17;;;;;;;4.28;2.97;;;23.40;40.60;;;;;;5082929;28;45413;-58
2021/03/13 04:03:50;;;;;;;5.32;3.50;;;23.40;40.60;;;;;;5084214;28;45386;-56
2021/03/13 04:06:16;;;;;;;6.10;3.83;;;23.40;40.60;;;;;;5084190;28;45373;-58
2021/03/13 04:08:43;;;;;;;4.82;2.90;;;23.40;40.60;;;;;;5083717;28;45319;-58
2021/03/13 04:11:20;;;;;;;4.97;2.65;;;23.40;40.50;;;;;;5083747;28;45236;-57
2021/03/13 04:13:47;;;;;;;4.60;2.65;;;23.50;40.50;;;;;;5068450;28;45124;-58
2021/03/13 04:16:13;;;;;;;5.35;3.15;;;23.50;40.70;;;;;;5084322;28;45455;-58
2021/03/13 04:18:39;;;;;;;4.88;2.63;;;23.50;40.60;;;;;;5083858;28;45429;-58
2021/03/13 04:21:05;;;;;;;4.47;2.50;;;23.50;40.60;;;;;;5083734;28;45469;-57
2021/03/13 04:23:30;;;;;;;6.82;3.45;;;23.50;40.60;;;;;;5083749;28;45342;-58
2021/03/13 04:25:56;;;;;;;4.93;3.22;;;23.50;40.60;;;;;;5084483;28;45642;-57
2021/03/13 04:28:21;;;;;;;5.40;3.10;;;23.60;40.50;;;;;;5083356;28;46353;-57
2021/03/13 04:30:50;;;;;;;4.95;3.05;;;23.60;40.50;;;;;;5083639;28;45241;-57
2021/03/13 04:33:16;;;;;;;6.90;3.22;;;23.60;40.60;;;;;;5083628;28;45300;-58
2021/03/13 04:35:42;;;;;;;5.45;2.90;;;23.70;40.70;;;;;;5084253;28;45553;-58
2021/03/13 04:38:08;;;;;;;4.70;2.70;;;23.70;40.70;;;;;;5083465;28;46917;-58
2021/03/13 04:40:33;;;;;;;4.63;2.75;;;23.70;40.70;;;;;;5083039;28;45325;-58
2021/03/13 04:42:59;;;;;;;5.72;2.95;;;23.70;40.70;;;;;;5086013;28;45411;-58
2021/03/13 04:45:25;;;;;;;4.00;2.30;;;23.70;40.70;;;;;;5069787;28;45700;-58
2021/03/13 04:47:50;;;;;;;5.07;2.60;;;23.70;40.60;;;;;;5085949;28;45435;-57
2021/03/13 04:50:18;;;;;;;4.88;3.10;;;23.70;40.60;;;;;;5086431;28;45338;-58
2021/03/13 04:52:44;;;;;;;4.45;2.45;;;23.70;40.50;;;;;;5088205;27;45297;-57
2021/03/13 04:55:10;;;;;;;4.30;2.70;;;23.70;40.60;;;;;;5086980;28;45279;-58
2021/03/13 04:57:36;;;;;;;5.30;2.90;;;23.80;40.60;;;;;;5084186;28;46197;-58
2021/03/13 05:00:13;;;;;;;3.85;2.10;;;23.80;40.70;;;;;;5086442;28;45376;-57
2021/03/13 05:02:39;;;;;;;4.35;2.35;;;23.80;40.60;;;;;;5077807;28;45417;-57
2021/03/13 05:05:05;;;;;;;5.15;2.80;;;23.80;40.50;;;;;;5070125;28;45286;-58
2021/03/13 05:07:31;;;;;;;5.47;2.40;;;23.90;40.60;;;;;;5065720;28;46472;-58
2021/03/13 05:09:56;;;;;;;4.35;2.33;;;23.80;40.50;;;;;;5066338;28;45344;-58
2021/03/13 05:12:22;;;;;;;3.90;2.50;;;23.80;40.50;;;;;;5066283;28;45372;-57
2021/03/13 05:14:48;;;;;;;4.63;2.30;;;23.90;41.10;;;;;;5066829;28;45435;-58
2021/03/13 05:17:14;;;;;;;4.68;2.45;;;23.90;40.40;;;;;;5066172;28;46048;-58
2021/03/13 05:19:39;;;;;;;4.70;2.30;;;23.90;40.40;;;;;;5065570;28;45446;-59
2021/03/13 05:22:05;;;;;;;5.30;2.28;;;23.90;40.40;;;;;;5066198;28;45212;-58
2021/03/13 05:24:31;;;;;;;5.22;2.50;;;23.90;40.40;;;;;;5066706;28;45595;-58
2021/03/13 05:26:57;;;;;;;5.30;2.92;;;23.90;40.30;;;;;;5065977;28;47262;-60
2021/03/13 05:29:23;;;;;;;4.60;2.53;;;23.90;40.40;;;;;;5065923;28;45285;-57
2021/03/13 05:31:48;;;;;;;3.70;2.03;;;23.90;40.20;;;;;;5055321;28;45335;-58
2021/03/13 05:34:14;;;;;;;4.25;2.58;;;23.90;40.10;;;;;;5066536;28;45398;-57
2021/03/13 05:36:39;;;;;;;4.43;2.55;;;23.90;40.30;;;;;;5065863;28;46584;-58
2021/03/13 05:39:05;;;;;;;3.80;2.25;;;23.90;40.20;;;;;;5065916;28;45353;-57
2021/03/13 05:41:31;;;;;;;3.60;2.28;;;24.00;40.20;;;;;;5065987;28;45420;-58
2021/03/13 05:43:59;;;;;;;4.00;2.22;;;24.00;40.10;;;;;;5076381;28;45530;-58
2021/03/13 05:46:25;;;;;;;3.10;1.73;;;23.90;40.10;;;;;;5086297;27;45327;-58
2021/03/13 05:48:50;;;;;;;4.18;2.40;;;24.00;40.10;;;;;;5085403;28;45325;-58
2021/03/13 05:51:16;;;;;;;3.58;1.85;;;24.00;40.10;;;;;;5068962;28;45438;-60
2021/03/13 05:53:41;;;;;;;4.03;2.33;;;24.00;40.10;;;;;;5067725;28;45556;-58
2021/03/13 05:56:08;;;;;;;3.85;2.05;;;24.10;40.20;;;;;;5085962;28;46093;-58
2021/03/13 05:58:35;;;;;;;3.40;2.00;;;24.10;40.20;;;;;;5086100;28;45332;-57
2021/03/13 06:01:01;;;;;;;3.88;1.90;;;24.10;40.20;;;;;;5085312;28;45413;-58
2021/03/13 06:03:26;;;;;;;4.55;2.53;;;24.10;40.00;;;;;;5086398;28;45535;-58
2021/03/13 06:05:52;;;;;;;4.05;2.25;;;24.20;40.00;;;;;;5085499;28;46343;-60
2021/03/13 06:08:18;;;;;;;4.72;2.20;;;24.20;40.00;;;;;;5086845;27;45284;-58
2021/03/13 06:10:43;;;;;;;3.72;2.00;;;24.30;40.00;;;;;;5070366;28;45303;-58
2021/03/13 06:13:10;;;;;;;4.30;2.15;;;24.30;40.00;;;;;;5072916;28;45367;-58
2021/03/13 06:15:36;;;;;;;3.90;1.88;;;24.30;40.00;;;;;;5089131;28;45313;-58
2021/03/13 06:18:02;;;;;;;3.70;1.70;;;24.30;39.90;;;;;;5088985;28;45283;-58
2021/03/13 06:20:31;;;;;;;3.55;2.10;;;24.30;39.90;;;;;;5089258;28;45248;-57
2021/03/13 06:22:56;;;;;;;2.90;1.70;;;24.30;40.50;;;;;;5090890;28;45248;-58
2021/03/13 06:25:24;;;;;;;4.05;2.13;;;24.30;39.90;;;;;;5087972;28;45425;-58
2021/03/13 06:28:10;;;;;;;3.13;1.92;;;24.40;39.90;;;;;;5089032;28;45328;-58
2021/03/13 06:30:39;;;;;;;3.28;1.77;;;24.40;39.80;;;;;;5089989;27;45407;-58
2021/03/13 06:33:29;;;;;;;4.45;2.28;;;24.40;39.80;;;;;;5080566;27;45315;-57
2021/03/13 06:35:56;;;;;;;4.20;2.60;;;24.50;39.80;;;;;;5086953;28;46198;-58
2021/03/13 06:38:24;;;;;;;3.47;1.80;;;24.50;40.40;;;;;;5087389;28;45303;-59
2021/03/13 06:40:51;;;;;;;2.70;1.60;;;24.50;39.80;;;;;;5087380;28;45746;-57
2021/03/13 06:43:30;;;;;;;3.50;1.83;;;24.50;39.70;;;;;;5087897;28;45575;-58
2021/03/13 06:46:06;;;;;;;4.65;1.83;;;24.50;39.80;;;;;;5085686;28;45385;-58
2021/03/13 06:48:38;;;;;;;4.13;2.00;;;24.50;39.70;;;;;;5087100;28;45307;-58
2021/03/13 06:51:24;;;;;;;3.60;1.70;;;24.50;39.80;;;;;;5086776;28;45411;-58
2021/03/13 06:54:01;;;;;;;4.05;1.95;;;24.60;39.70;;;;;;5087787;28;45796;-58
2021/03/13 06:56:31;;;;;;;3.50;1.80;;;24.60;39.70;;;;;;5086465;28;45365;-58
2021/03/13 06:58:57;;;;;;;3.38;1.90;;;24.60;39.70;;;;;;5087216;28;45393;-58
2021/03/13 07:01:27;;;;;;;4.43;2.00;;;24.60;39.70;;;;;;5086406;28;45429;-58
2021/03/13 07:03:53;;;;;;;4.63;1.63;;;24.60;39.80;;;;;;5087295;28;45849;-58
2021/03/13 07:06:18;;;;;;;3.72;1.70;;;24.50;39.80;;;;;;5087096;28;45483;-59
2021/03/13 07:08:45;;;;;;;6.78;1.52;;;24.50;39.80;;;;;;5070044;28;45496;-59
2021/03/13 07:11:11;;;;;;;3.45;1.90;;;24.50;39.90;;;;;;5070221;28;45522;-57
2021/03/13 07:13:41;;;;;;;4.53;1.90;;;24.50;39.90;;;;;;5088369;28;45781;-58
2021/03/13 07:16:23;;;;;;;2.55;1.40;;;24.50;39.90;;;;;;5077164;28;46347;-58
2021/03/13 07:18:49;;;;;;;3.80;1.90;;;24.50;39.90;;;;;;5082345;28;45377;-58
2021/03/13 07:21:15;;;;;;;3.20;1.73;;;24.50;39.90;;;;;;5086449;27;45435;-58
2021/03/13 07:23:42;;;;;;;3.28;1.63;;;24.50;40.00;;;;;;5070098;28;45584;-58
2021/03/13 07:26:11;;;;;;;4.72;1.95;;;24.50;40.00;;;;;;5084551;28;46249;-58
2021/03/13 07:28:42;;;;;;;5.05;1.73;;;24.50;40.00;;;;;;5086405;28;45518;-58
2021/03/13 07:31:11;;;;;;;3.25;1.70;;;24.60;40.10;;;;;;5087021;28;45381;-60
2021/03/13 07:33:40;;;;;;;2.80;1.60;;;24.50;40.00;;;;;;5083823;28;45650;-58
2021/03/13 07:36:10;;;;;;;4.50;1.70;;;24.60;40.00;;;;;;5076860;28;46272;-59
2021/03/13 07:38:38;;;;;;;3.90;1.60;;;24.60;40.00;;;;;;5080405;28;45378;-58
2021/03/13 07:41:04;;;;;;;3.08;1.70;;;24.60;40.00;;;;;;5087495;28;45476;-59
2021/03/13 07:43:29;;;;;;;3.05;1.48;;;24.60;40.10;;;;;;5086118;28;45520;-59
2021/03/13 07:45:55;;;;;;;6.07;1.65;;;24.60;40.10;;;;;;5080977;28;47264;-59
2021/03/13 07:48:21;;;;;;;2.97;1.55;;;24.60;40.10;;;;;;5085398;28;45391;-60
2021/03/13 07:50:49;;;;;;;3.55;1.65;;;24.60;40.10;;;;;;5083437;28;45505;-59
2021/03/13 07:53:15;;;;;;;3.45;1.70;;;24.60;40.20;;;;;;5087007;28;45341;-60
2021/03/13 07:55:41;;;;;;;7.05;2.28;;;24.60;40.40;;;;;;5079226;28;46163;-64
2021/03/13 07:58:08;;;;;;;4.38;1.60;;;24.70;40.40;;;;;;5086173;28;45514;-62
2021/03/13 08:00:44;;;;;;;7.18;1.92;;;24.80;40.20;;;;;;5086374;28;45405;-61
2021/03/13 08:03:29;;;;;;;15.82;2.80;;;24.80;40.20;;;;;;5086091;28;45334;-62
2021/03/13 08:05:55;;;;;;;18.67;2.58;;;24.90;40.20;;;;;;5086010;28;46167;-60
2021/03/13 08:08:33;;;;;;;7.25;1.70;;;24.90;40.40;;;;;;5084399;27;45328;-60
2021/03/13 08:10:59;;;;;;;10.88;2.25;;;24.90;40.50;;;;;;5082820;28;45709;-58
2021/03/13 08:13:27;;;;;;;7.20;1.95;;;25.00;40.30;;;;;;5063969;28;45554;-61
2021/03/13 08:16:09;;;;;;;5.30;1.88;;;25.00;40.20;;;;;;5085163;28;46555;-60
2021/03/13 08:18:44;;;;;;;7.22;2.00;;;25.10;40.40;;;;;;5086020;28;45529;-61
2021/03/13 08:21:19;;;;;;;10.48;2.20;;;25.00;40.50;;;;;;5084304;28;45409;-60
2021/03/13 08:24:00;;;;;;;12.07;2.80;;;25.00;40.40;;;;;;5085835;28;45420;-62
2021/03/13 08:26:35;;;;;;;10.52;2.65;;;25.10;40.50;;;;;;5078220;28;45549;-60
2021/03/13 08:29:05;;;;;;;8.23;2.35;;;25.00;40.60;;;;;;5082046;28;45266;-60
2021/03/13 08:31:36;;;;;;;7.97;2.40;;;25.10;40.70;;;;;;5083103;28;45318;-61
2021/03/13 08:34:02;;;;;;;4.75;2.00;;;25.00;40.80;;;;;;5085343;28;45635;-60
2021/03/13 08:36:33;;;;;;;8.25;2.40;;;24.90;40.90;;;;;;5086229;28;46919;-61
2021/03/13 08:38:59;;;;;;;4.25;1.92;;;24.90;40.90;;;;;;5088158;27;45462;-61
2021/03/13 08:41:46;;;;;;;6.63;2.58;;;24.90;40.90;;;;;;5070286;28;45417;-61
2021/03/13 08:44:13;;;;;;;9.05;2.38;;;24.90;41.00;;;;;;5087058;28;45366;-60
2021/03/13 08:46:54;;;;;;;6.50;2.00;;;24.90;41.00;;;;;;5087016;28;46012;-60
2021/03/13 08:49:26;;;;;;;5.60;1.77;;;24.90;41.10;;;;;;5083447;28;45385;-60
2021/03/13 08:52:07;;;;;;;8.48;2.10;;;24.90;41.10;;;;;;5085828;27;45366;-61
2021/03/13 08:57:11;;;;;;;12.43;3.17;;;24.80;42.10;;;;;;5087507;28;45864;-61
2021/03/13 08:59:41;;;;;;;8.07;2.78;;;24.70;41.50;;;;;;5085995;28;45438;-61
2021/03/13 09:02:14;;;;;;;8.43;2.63;;;24.60;41.30;;;;;;5082698;28;45486;-56
2021/03/13 09:04:50;;;;;;;7.68;1.88;;;24.60;40.80;;;;;;5067846;28;45390;-55
2021/03/13 09:07:17;;;;;;;5.70;1.90;;;24.60;37.80;;;;;;5079108;27;46155;-54
2021/03/13 09:09:43;;;;;;;3.55;1.50;;;24.40;36.40;;;;;;5067384;28;45423;-56
2021/03/13 09:12:10;;;;;;;3.40;1.80;;;24.40;35.90;;;;;;5060667;28;46254;-55
2021/03/13 09:14:41;;;;;;;4.05;1.40;;;24.30;35.80;;;;;;5066381;28;45508;-64
2021/03/13 09:17:08;;;;;;;3.15;1.20;;;24.20;35.80;;;;;;5072700;28;47256;-63
2021/03/13 09:19:33;;;;;;;5.43;1.35;;;24.20;34.90;;;;;;5061736;28;46359;-64
2021/03/13 09:21:59;;;;;;;2.58;1.27;;;24.10;35.00;;;;;;5051070;28;45557;-54
2021/03/13 09:24:28;;;;;;;4.07;1.25;;;24.10;34.40;;;;;;5049582;28;45500;-55
2021/03/13 09:26:58;;;;;;;2.38;1.17;;;24.30;35.10;;;;;;5060944;28;46017;-56
2021/03/13 09:29:28;;;;;;;2.53;1.00;;;24.30;35.50;;;;;;5051095;28;45593;-56
2021/03/13 09:32:01;;;;;;;1.80;0.90;;;24.30;36.00;;;;;;5065688;28;45830;-55
2021/03/13 09:34:27;;;;;;;3.10;1.00;;;24.40;36.30;;;;;;5071241;28;45488;-57
2021/03/13 09:36:52;;;;;;;2.00;0.98;;;24.50;36.50;;;;;;5054739;28;47201;-57
2021/03/13 09:39:26;;;;;;;3.40;1.13;;;24.50;36.70;;;;;;5048115;28;45509;-56
2021/03/13 09:42:08;;;;;;;4.90;1.02;;;24.60;36.80;;;;;;5073334;28;45513;-51
2021/03/13 09:44:35;;;;;;;2.80;0.80;;;24.60;36.80;;;;;;5083185;27;45520;-52
2021/03/13 09:47:08;;;;;;;3.22;1.35;;;24.60;37.00;;;;;;5068327;28;46333;-57
2021/03/13 09:49:33;;;;;;;2.55;0.77;;;24.60;37.10;;;;;;5067044;28;46336;-53
2021/03/13 09:51:59;;;;;;;4.00;1.50;;;24.70;37.20;;;;;;5075035;28;45460;-55
2021/03/13 09:54:24;;;;;;;3.30;1.10;;;24.70;37.30;;;;;;5056833;28;45545;-54
2021/03/13 09:56:50;;;;;;;2.45;1.05;;;24.70;37.30;;;;;;5067373;28;46440;-53
2021/03/13 09:59:18;;;;;;;2.10;0.82;;;24.70;37.40;;;;;;5050383;28;45531;-57
2021/03/13 10:01:43;;;;;;;2.50;0.80;;;24.80;37.60;;;;;;5054180;28;45645;-59
2021/03/13 10:04:09;;;;;;;6.57;1.05;;;24.80;37.60;;;;;;5066408;28;45346;-59
2021/03/13 10:06:35;;;;;;;2.25;0.73;;;24.80;37.60;;;;;;5063419;28;46325;-57
2021/03/13 10:09:00;;;;;;;3.22;0.95;;;24.90;37.70;;;;;;5059460;28;45548;-56
2021/03/13 10:11:40;;;;;;;1.63;0.80;;;24.90;37.70;;;;;;5057812;28;45574;-58
2021/03/13 10:14:05;;;;;;;2.88;1.05;;;24.90;37.70;;;;;;5083669;28;45567;-59
2021/03/13 10:16:32;;;;;;;3.67;1.10;;;24.90;37.40;;;;;;5065792;28;45967;-59
2021/03/13 10:18:57;;;;;;;2.72;1.13;;;24.90;36.30;;;;;;5065246;28;45519;-59
2021/03/13 10:21:23;;;;;;;2.00;0.80;;;24.80;35.70;;;;;;5068473;28;45541;-59
2021/03/13 10:23:49;;;;;;;2.42;1.13;;;24.70;35.10;;;;;;5076852;28;45414;-58
2021/03/13 10:26:15;;;;;;;4.13;1.17;;;24.70;34.80;;;;;;5062476;28;46048;-61
2021/03/13 10:28:50;;;;;;;5.35;1.50;;;24.70;35.30;;;;;;5064506;28;45431;-62
2021/03/13 10:31:20;;;;;;;4.50;1.05;;;24.70;35.40;;;;;;5066966;28;45528;-60
2021/03/13 10:33:47;;;;;;;3.17;1.10;;;24.70;35.50;;;;;;5050904;28;45637;-60
2021/03/13 10:36:14;;;;;;;5.75;1.20;;;24.70;35.80;;;;;;5075695;28;45350;-61
2021/03/13 10:38:50;;;;;;;6.95;1.75;;;24.70;36.10;;;;;;5087804;28;45610;-61
2021/03/13 10:41:20;;;;;;;2.80;1.33;;;24.70;36.30;;;;;;5076876;28;45457;-60
2021/03/13 10:43:46;;;;;;;2.45;0.90;;;24.70;36.50;;;;;;5060040;28;45479;-60
2021/03/13 10:46:16;;;;;;;4.22;1.33;;;24.70;36.70;;;;;;5068774;28;46042;-60
2021/03/13 10:48:51;;;;;;;2.83;0.90;;;24.70;36.80;;;;;;5066428;28;45826;-60
2021/03/13 10:51:20;;;;;;;2.90;1.20;;;24.70;37.00;;;;;;5071186;28;46298;-60
2021/03/13 10:53:46;;;;;;;5.57;1.30;;;24.70;37.20;;;;;;5068177;28;45667;-61
2021/03/13 10:56:12;;;;;;;5.03;1.42;;;24.70;37.30;;;;;;5063515;28;45714;-61
2021/03/13 10:58:45;;;;;;;2.65;1.05;;;24.80;37.70;;;;;;5071049;28;45344;-61
2021/03/13 11:01:10;;;;;;;4.15;1.13;;;24.80;37.80;;;;;;5072413;28;45453;-61
2021/03/13 11:03:36;;;;;;;4.20;1.20;;;24.70;37.90;;;;;;5074365;28;45702;-58
2021/03/13 11:06:01;;;;;;;5.00;1.58;;;24.80;38.10;;;;;;5064975;28;45919;-59
2021/03/13 11:08:28;;;;;;;6.35;1.30;;;24.70;38.10;;;;;;5065110;28;45406;-59
2021/03/13 11:10:54;;;;;;;3.33;1.00;;;24.70;38.40;;;;;;5075524;28;45437;-63
2021/03/13 11:13:20;;;;;;;4.60;1.23;;;24.80;38.70;;;;;;5077185;28;45498;-66
2021/03/13 11:15:46;;;;;;;4.38;1.85;;;24.80;38.80;;;;;;5077748;28;46305;-64
2021/03/13 11:18:12;;;;;;;5.93;1.30;;;24.80;38.70;;;;;;5078084;28;45635;-64
2021/03/13 11:20:38;;;;;;;6.70;1.95;;;24.80;38.50;;;;;;5064303;28;45444;-59
2021/03/13 11:23:03;;;;;;;12.02;2.25;;;24.90;38.20;;;;;;5075067;28;45695;-64
2021/03/13 11:25:29;;;;;;;3.10;1.20;;;24.80;38.00;;;;;;5067082;28;46240;-62
2021/03/13 11:27:55;;;;;;;7.93;1.75;;;24.80;37.90;;;;;;5075176;28;45480;-62
2021/03/13 11:30:21;;;;;;;4.60;1.30;;;24.80;37.80;;;;;;5079660;28;46484;-61
2021/03/13 11:32:47;;;;;;;5.28;1.83;;;24.90;37.00;;;;;;5064176;28;45687;-62
2021/03/13 11:35:12;;;;;;;8.50;1.67;;;24.90;37.10;;;;;;5072768;28;47336;-58
2021/03/13 11:37:38;;;;;;;7.95;1.88;;;24.80;37.10;;;;;;5063315;28;45541;-59
2021/03/13 11:40:05;;;;;;;6.32;1.90;;;24.90;37.20;;;;;;5065274;28;45727;-61
2021/03/13 11:42:30;;;;;;;9.13;1.73;;;24.90;37.40;;;;;;5064931;28;45610;-65
2021/03/13 11:44:59;;;;;;;6.57;2.00;;;24.80;37.40;;;;;;5070627;28;46922;-61
2021/03/13 11:47:25;;;;;;;5.85;1.55;;;24.90;37.70;;;;;;5071844;28;45807;-64
2021/03/13 11:49:51;;;;;;;5.78;1.67;;;24.80;37.70;;;;;;5066192;28;45448;-61
2021/03/13 11:52:18;;;;;;;6.30;1.75;;;24.80;38.20;;;;;;5074994;28;45344;-61
2021/03/13 11:54:45;;;;;;;7.95;2.20;;;24.80;38.00;;;;;;5064763;28;45372;-63
2021/03/13 11:57:11;;;;;;;4.22;1.33;;;24.80;37.90;;;;;;5064975;28;45480;-62
2021/03/13 11:59:36;;;;;;;9.25;2.20;;;24.70;38.00;;;;;;5063969;28;45561;-61
2021/03/13 12:02:02;;;;;;;7.70;1.80;;;24.70;36.40;;;;;;5063504;28;45526;-64
2021/03/13 12:04:28;;;;;;;4.32;1.55;;;24.60;36.30;;;;;;5060943;28;46893;-62
2021/03/13 12:06:53;;;;;;;7.57;1.75;;;24.60;36.90;;;;;;5064481;28;45431;-62
2021/03/13 12:09:19;;;;;;;9.18;2.00;;;24.60;37.10;;;;;;5065301;28;45438;-62
2021/03/13 12:11:45;;;;;;;7.57;1.88;;;24.60;37.20;;;;;;5066701;28;45486;-62
2021/03/13 12:14:10;;;;;;;5.53;2.22;;;24.60;37.30;;;;;;5061282;28;46250;-63
2021/03/13 12:16:36;;;;;;;6.85;1.90;;;24.60;37.40;;;;;;5063316;28;45438;-62
2021/03/13 12:19:02;;;;;;;5.35;2.08;;;24.60;37.50;;;;;;5065917;28;45562;-62
2021/03/13 12:21:27;;;;;;;6.38;2.20;;;24.60;37.60;;;;;;5067675;28;45779;-63
2021/03/13 12:23:53;;;;;;;6.07;1.73;;;24.50;37.60;;;;;;5063221;28;46311;-63
2021/03/13 12:26:19;;;;;;;4.82;1.90;;;24.50;37.70;;;;;;5063513;28;45429;-63
2021/03/13 12:28:47;;;;;;;5.22;2.13;;;24.50;37.70;;;;;;5066489;28;45597;-63
2021/03/13 12:31:13;;;;;;;4.40;2.15;;;24.50;37.80;;;;;;5062344;28;45754;-63
2021/03/13 12:33:39;;;;;;;4.93;2.10;;;24.50;37.90;;;;;;5063254;28;46009;-63
2021/03/13 12:36:05;;;;;;;6.07;2.30;;;24.40;37.90;;;;;;5072766;28;45513;-62
2021/03/13 12:38:30;;;;;;;7.35;2.10;;;24.40;38.00;;;;;;5072626;27;45747;-61
2021/03/13 12:40:56;;;;;;;4.72;1.90;;;24.40;38.00;;;;;;5072354;28;45552;-63
2021/03/13 12:43:22;;;;;;;6.57;2.45;;;24.40;38.00;;;;;;5062777;28;47036;-63
2021/03/13 12:45:47;;;;;;;5.68;1.90;;;24.30;36.60;;;;;;5047838;28;45481;-63
2021/03/13 12:48:13;;;;;;;5.53;2.00;;;24.30;37.20;;;;;;5074940;28;45659;-62
2021/03/13 12:50:39;;;;;;;10.05;2.45;;;24.30;37.90;;;;;;5065248;28;45625;-62
2021/03/13 12:53:04;;;;;;;6.47;2.10;;;24.20;37.90;;;;;;5077130;28;46339;-61